createdAt,value
2023-01-30T00:00:39.873Z,1
2023-01-30T00:02:36.783Z,1
2023-01-30T00:04:36.771Z,1
2023-01-30T00:06:40.457Z,1
2023-01-30T00:08:36.445Z,1
2023-01-30T00:10:36.427Z,1
2023-01-30T00:12:36.524Z,1
2023-01-30T00:14:36.794Z,1
2023-01-30T00:16:40.513Z,1
2023-01-30T00:18:40.533Z,1
2023-01-30T00:20:36.927Z,1
2023-01-30T00:22:44.202Z,1
2023-01-30T00:24:37.287Z,1
2023-01-30T00:26:40.083Z,1
2023-01-30T00:28:36.287Z,1
2023-01-30T00:30:40.333Z,1
2023-01-30T00:32:36.485Z,1
2023-01-30T00:34:36.991Z,1
2023-01-30T00:36:36.956Z,1
2023-01-30T00:38:47.044Z,1
2023-01-30T00:40:37.048Z,1
2023-01-30T00:42:37.403Z,1
2023-01-30T00:44:36.319Z,1
2023-01-30T00:46:37.067Z,1
2023-01-30T00:48:36.369Z,1
2023-01-30T00:50:36.801Z,1
2023-01-30T00:52:36.739Z,1
2023-01-30T00:54:40.339Z,1
2023-01-30T00:56:40.279Z,1
2023-01-30T00:58:36.330Z,1
2023-01-30T01:00:36.246Z,1
2023-01-30T01:02:36.705Z,1
2023-01-30T01:04:36.941Z,1
2023-01-30T01:06:40.970Z,1
2023-01-30T01:08:36.276Z,1
2023-01-30T01:10:43.086Z,1
2023-01-30T01:12:37.107Z,1
2023-01-30T01:14:40.653Z,1
2023-01-30T01:16:39.915Z,1
2023-01-30T01:18:36.822Z,1
2023-01-30T01:20:36.266Z,1
2023-01-30T01:22:36.683Z,1
2023-01-30T01:24:44.244Z,1
2023-01-30T01:26:37.111Z,1
2023-01-30T01:28:36.321Z,1
2023-01-30T01:30:37.046Z,1
2023-01-30T01:32:40.327Z,1
2023-01-30T01:34:36.316Z,1
2023-01-30T01:36:52.568Z,1
2023-01-30T01:38:37.038Z,1
2023-01-30T01:40:36.958Z,1
2023-01-30T01:42:40.480Z,1
2023-01-30T01:44:36.513Z,1
2023-01-30T01:46:36.366Z,1
2023-01-30T01:48:39.960Z,1
2023-01-30T01:50:40.278Z,1
2023-01-30T01:52:36.930Z,1
2023-01-30T01:54:37.142Z,1
2023-01-30T01:56:40.172Z,1
2023-01-30T01:58:39.413Z,1
2023-01-30T02:00:43.551Z,1
2023-01-30T02:02:40.658Z,1
2023-01-30T02:04:43.354Z,1
2023-01-30T02:06:37.239Z,1
2023-01-30T02:08:37.137Z,1
2023-01-30T02:10:39.896Z,1
2023-01-30T02:12:36.649Z,1
2023-01-30T02:14:36.817Z,1
2023-01-30T02:16:37.041Z,1
2023-01-30T02:18:41.049Z,1
2023-01-30T02:20:40.215Z,1
2023-01-30T02:22:36.790Z,1
2023-01-30T02:24:37.168Z,1
2023-01-30T02:26:36.722Z,1
2023-01-30T02:28:37.070Z,1
2023-01-30T02:30:37.059Z,1
2023-01-30T02:32:36.334Z,1
2023-01-30T02:34:36.464Z,1
2023-01-30T02:36:37.046Z,1
2023-01-30T02:38:40.421Z,1
2023-01-30T02:40:36.964Z,1
2023-01-30T02:42:44.051Z,1
2023-01-30T02:44:40.437Z,1
2023-01-30T02:46:36.910Z,1
2023-01-30T02:48:37.310Z,1
2023-01-30T02:50:36.435Z,1
2023-01-30T02:52:36.362Z,1
2023-01-30T02:54:40.419Z,1
2023-01-30T02:56:40.394Z,1
2023-01-30T02:58:36.735Z,1
2023-01-30T03:00:36.621Z,1
2023-01-30T03:02:36.998Z,1
2023-01-30T03:04:40.020Z,1
2023-01-30T03:06:41.364Z,1
2023-01-30T03:08:37.024Z,1
2023-01-30T03:10:36.421Z,1
2023-01-30T03:12:40.483Z,1
2023-01-30T03:14:36.857Z,1
2023-01-30T03:16:39.892Z,1
2023-01-30T03:18:36.884Z,1
2023-01-30T03:20:36.389Z,1
2023-01-30T03:22:37.194Z,1
2023-01-30T03:24:36.397Z,1
2023-01-30T03:26:37.210Z,1
2023-01-30T03:28:40.411Z,1
2023-01-30T03:30:37.201Z,1
2023-01-30T03:32:37.136Z,1
2023-01-30T03:34:37.070Z,1
2023-01-30T03:36:37.167Z,1
2023-01-30T03:38:36.805Z,1
2023-01-30T03:40:40.323Z,1
2023-01-30T03:42:36.368Z,1
2023-01-30T03:44:36.319Z,1
2023-01-30T03:46:40.280Z,1
2023-01-30T03:48:37.071Z,1
2023-01-30T03:50:36.892Z,1
2023-01-30T03:52:36.443Z,1
2023-01-30T03:54:42.952Z,1
2023-01-30T03:56:40.322Z,1
2023-01-30T03:58:37.231Z,1
2023-01-30T04:02:36.289Z,1
2023-01-30T04:04:36.282Z,1
2023-01-30T04:06:36.839Z,1
2023-01-30T04:08:36.898Z,1
2023-01-30T04:10:39.965Z,1
2023-01-30T04:14:40.329Z,1
2023-01-30T04:16:36.574Z,1
2023-01-30T04:18:36.588Z,1
2023-01-30T04:20:37.089Z,1
2023-01-30T04:22:36.982Z,1
2023-01-30T04:24:44.073Z,1
2023-01-30T04:26:37.038Z,1
2023-01-30T04:28:40.397Z,1
2023-01-30T04:30:40.396Z,1
2023-01-30T04:32:37.167Z,1
2023-01-30T04:34:40.446Z,1
2023-01-30T04:36:37.061Z,1
2023-01-30T04:38:37.028Z,1
2023-01-30T04:40:40.455Z,1
2023-01-30T04:42:37.337Z,1
2023-01-30T04:44:36.337Z,1
2023-01-30T04:46:36.756Z,1
2023-01-30T04:48:40.534Z,1
2023-01-30T04:50:40.432Z,1
2023-01-30T04:52:40.167Z,1
2023-01-30T04:56:37.144Z,1
2023-01-30T04:58:42.905Z,1
2023-01-30T05:00:37.069Z,1
2023-01-30T05:02:40.072Z,1
2023-01-30T05:04:40.383Z,1
2023-01-30T05:06:36.919Z,1
2023-01-30T05:08:40.023Z,1
2023-01-30T05:10:36.768Z,1
2023-01-30T05:12:44.079Z,1
2023-01-30T05:14:40.393Z,1
2023-01-30T05:16:36.312Z,1
2023-01-30T05:18:36.355Z,1
2023-01-30T05:20:37.154Z,1
2023-01-30T05:22:37.085Z,1
2023-01-30T05:24:36.772Z,1
2023-01-30T05:26:40.000Z,1
2023-01-30T05:28:40.391Z,1
2023-01-30T05:30:40.740Z,1
2023-01-30T05:32:39.775Z,1
2023-01-30T05:34:36.486Z,1
2023-01-30T05:36:37.353Z,1
2023-01-30T05:38:37.229Z,1
2023-01-30T05:40:37.288Z,1
2023-01-30T05:44:15.490Z,1
2023-01-30T05:46:17.322Z,1
2023-01-30T05:48:17.393Z,1
2023-01-30T05:50:13.833Z,1
2023-01-30T05:52:13.964Z,1
2023-01-30T05:54:17.921Z,1
2023-01-30T05:56:13.924Z,1
2023-01-30T05:58:17.027Z,1
2023-01-30T06:00:14.030Z,0
2023-01-30T06:02:17.385Z,0
2023-01-30T06:04:13.760Z,0
2023-01-30T06:06:17.527Z,0
2023-01-30T06:08:14.037Z,0.1
2023-01-30T06:10:13.696Z,0.1
2023-01-30T06:12:19.217Z,0.2
2023-01-30T06:14:14.025Z,0.3
2023-01-30T06:16:14.322Z,0.4
2023-01-30T06:18:21.116Z,0.6
2023-01-30T06:20:17.424Z,0.9
2023-01-30T06:22:17.173Z,1.6
2023-01-30T06:24:13.804Z,2.6
2023-01-30T06:26:13.983Z,4.3
2023-01-30T06:28:14.775Z,7.4
2023-01-30T06:30:14.282Z,12.2
2023-01-30T06:32:13.974Z,18.2
2023-01-30T06:34:16.524Z,22.2
2023-01-30T06:36:14.170Z,27.1
2023-01-30T06:38:13.591Z,31.5
2023-01-30T06:40:17.842Z,42.5
2023-01-30T06:42:13.981Z,57.4
2023-01-30T06:44:13.749Z,73.7
2023-01-30T06:46:17.176Z,85.6
2023-01-30T06:48:13.669Z,94.6
2023-01-30T06:50:14.021Z,121.5
2023-01-30T06:52:13.929Z,156
2023-01-30T06:54:16.549Z,190.6
2023-01-30T06:56:20.470Z,221.4
2023-01-30T06:58:14.496Z,257.2
2023-01-30T07:00:11.574Z,270.4
2023-01-30T07:02:20.423Z,284.3
2023-01-30T07:04:13.892Z,298.9
2023-01-30T07:06:13.155Z,314.2
2023-01-30T07:08:18.642Z,330.3
2023-01-30T07:10:13.935Z,347.2
2023-01-30T07:12:14.032Z,403.4
2023-01-30T07:14:13.880Z,492.7
2023-01-30T07:16:16.979Z,632.7
2023-01-30T07:18:17.679Z,772.8
2023-01-30T07:20:13.951Z,854.1
2023-01-30T07:22:13.920Z,854.1
2023-01-30T07:24:14.783Z,897.8
2023-01-30T07:26:13.999Z,1096.6
2023-01-30T07:28:13.833Z,1274.1
2023-01-30T07:30:16.549Z,1408.1
2023-01-30T07:32:12.127Z,1480.3
2023-01-30T07:34:13.969Z,1556.2
2023-01-30T07:36:23.120Z,1808
2023-01-30T07:38:14.393Z,2440.6
2023-01-30T07:40:13.812Z,2565.7
2023-01-30T07:42:19.663Z,2835.6
2023-01-30T07:44:20.584Z,3133.8
2023-01-30T07:46:17.419Z,3641
2023-01-30T07:48:13.765Z,3641
2023-01-30T07:50:14.251Z,3641
2023-01-30T07:52:15.108Z,2697.3
2023-01-30T07:54:14.121Z,2835.6
2023-01-30T07:56:14.817Z,2697.3
2023-01-30T07:58:13.659Z,2440.6
2023-01-30T08:00:13.890Z,2565.7
2023-01-30T08:02:13.879Z,2565.7
2023-01-30T08:04:18.467Z,2565.7
2023-01-30T08:06:20.991Z,2440.6
2023-01-30T08:08:12.116Z,2440.6
2023-01-30T08:10:13.938Z,2981
2023-01-30T08:12:13.963Z,4230.2
2023-01-30T08:14:16.777Z,5166.8
2023-01-30T08:16:14.001Z,7707.9
2023-01-30T08:18:14.143Z,9897.1
2023-01-30T08:20:17.711Z,8103.1
2023-01-30T08:22:17.438Z,9414.4
2023-01-30T08:24:14.061Z,5166.8
2023-01-30T08:26:11.466Z,4914.8
2023-01-30T08:28:15.628Z,4675.1
2023-01-30T08:30:14.194Z,3294.5
2023-01-30T08:32:14.871Z,2565.7
2023-01-30T08:34:20.542Z,2208.3
2023-01-30T08:36:17.569Z,2100.6
2023-01-30T08:38:14.048Z,2208.3
2023-01-30T08:40:20.900Z,2440.6
2023-01-30T08:42:14.158Z,3641
2023-01-30T08:44:13.898Z,2321.6
2023-01-30T08:46:16.221Z,2208.3
2023-01-30T08:48:14.510Z,2208.3
2023-01-30T08:50:17.475Z,2697.3
2023-01-30T08:54:14.153Z,2981
2023-01-30T08:56:13.978Z,2981
2023-01-30T08:58:14.183Z,2565.7
2023-01-30T09:00:13.883Z,2321.6
2023-01-30T09:02:20.145Z,2565.7
2023-01-30T09:04:14.108Z,2208.3
2023-01-30T09:06:14.200Z,2440.6
2023-01-30T09:08:14.805Z,2697.3
2023-01-30T09:10:13.980Z,2697.3
2023-01-30T09:12:16.642Z,2835.6
2023-01-30T09:14:20.390Z,2981
2023-01-30T09:16:14.167Z,3294.5
2023-01-30T09:18:14.181Z,3641
2023-01-30T09:20:14.060Z,3641
2023-01-30T09:22:15.147Z,4023.9
2023-01-30T09:24:14.197Z,3294.5
2023-01-30T09:26:14.073Z,3827.6
2023-01-30T09:28:17.733Z,6974.4
2023-01-30T09:30:13.920Z,4447.1
2023-01-30T09:32:14.139Z,4230.2
2023-01-30T09:34:13.812Z,5166.8
2023-01-30T09:36:19.484Z,8103.1
2023-01-30T09:38:14.492Z,17154.2
2023-01-30T09:42:13.871Z,6974.4
2023-01-30T09:44:14.016Z,10938
2023-01-30T09:46:15.104Z,16317.6
2023-01-30T09:48:14.001Z,31257
2023-01-30T09:50:20.018Z,62944
2023-01-30T09:52:13.846Z,66171.2
2023-01-30T09:54:14.077Z,46630
2023-01-30T09:56:14.544Z,19930.4
2023-01-30T09:58:17.718Z,15521.8
2023-01-30T10:00:14.249Z,23155.8
2023-01-30T10:02:17.947Z,56954
2023-01-30T10:04:13.910Z,31257
2023-01-30T10:06:14.104Z,28282.5
2023-01-30T10:08:19.404Z,51534.2
2023-01-30T10:10:13.793Z,69563.8
2023-01-30T10:12:17.448Z,73130.4
2023-01-30T10:14:13.890Z,34544.4
2023-01-30T10:16:13.809Z,40134.8
2023-01-30T10:18:17.023Z,69563.8
2023-01-30T10:20:16.264Z,62944
2023-01-30T10:22:15.658Z,24343
2023-01-30T10:24:11.174Z,20952.2
2023-01-30T10:26:14.197Z,10404.6
2023-01-30T10:28:17.039Z,8955.3
2023-01-30T10:30:14.109Z,7332
2023-01-30T10:32:20.646Z,5166.8
2023-01-30T10:34:13.850Z,4023.9
2023-01-30T10:36:21.421Z,3463.4
2023-01-30T10:38:17.217Z,2981
2023-01-30T10:40:13.713Z,2697.3
2023-01-30T10:42:20.605Z,2321.6
2023-01-30T10:44:13.957Z,1998.2
2023-01-30T10:46:11.638Z,1900.7
2023-01-30T10:48:19.395Z,1998.2
2023-01-30T10:50:13.834Z,2208.3
2023-01-30T10:52:13.896Z,2208.3
2023-01-30T10:54:13.947Z,2321.6
2023-01-30T10:56:18.322Z,2697.3
2023-01-30T10:58:14.270Z,2835.6
2023-01-30T11:00:15.548Z,2981
2023-01-30T11:02:11.289Z,2981
2023-01-30T11:04:17.388Z,3294.5
2023-01-30T11:06:14.356Z,3294.5
2023-01-30T11:08:18.905Z,3463.4
2023-01-30T11:10:13.948Z,4023.9
2023-01-30T11:12:13.980Z,3827.6
2023-01-30T11:14:17.065Z,3463.4
2023-01-30T11:16:14.388Z,3294.5
2023-01-30T11:18:50.838Z,3463.4
2023-01-30T11:20:14.042Z,4675.1
2023-01-30T11:22:14.850Z,7707.9
2023-01-30T11:24:14.309Z,12088.4
2023-01-30T11:26:17.520Z,7332
2023-01-30T11:28:14.010Z,5710.1
2023-01-30T11:30:14.437Z,4914.8
2023-01-30T11:32:14.259Z,4675.1
2023-01-30T11:34:17.369Z,3827.6
2023-01-30T11:36:14.242Z,3641
2023-01-30T11:38:13.973Z,3463.4
2023-01-30T11:40:14.356Z,3463.4
2023-01-30T11:42:15.762Z,3827.6
2023-01-30T11:44:14.184Z,4230.2
2023-01-30T11:46:13.978Z,4447.1
2023-01-30T11:48:27.949Z,4914.8
2023-01-30T11:50:19.159Z,5166.8
2023-01-30T11:52:17.006Z,4914.8
2023-01-30T11:54:20.455Z,4447.1
2023-01-30T11:56:17.373Z,4023.9
2023-01-30T11:58:14.033Z,4023.9
2023-01-30T12:00:13.915Z,4914.8
2023-01-30T12:02:22.930Z,4914.8
2023-01-30T12:04:14.117Z,5710.1
2023-01-30T12:06:14.120Z,4914.8
2023-01-30T12:08:14.014Z,6310.7
2023-01-30T12:10:16.664Z,12088.4
2023-01-30T12:12:13.987Z,7707.9
2023-01-30T12:14:14.035Z,7707.9
2023-01-30T12:16:15.413Z,5710.1
2023-01-30T12:18:14.403Z,4447.1
2023-01-30T12:20:13.991Z,6310.7
2023-01-30T12:22:14.383Z,6974.4
2023-01-30T12:24:20.611Z,6974.4
2023-01-30T12:26:14.288Z,9414.4
2023-01-30T12:28:15.611Z,8955.3
2023-01-30T12:30:14.731Z,11498.8
2023-01-30T12:32:14.369Z,5431.7
2023-01-30T12:34:15.280Z,4023.9
2023-01-30T12:36:14.660Z,4675.1
2023-01-30T12:38:13.973Z,4023.9
2023-01-30T12:40:13.833Z,4230.2
2023-01-30T12:44:20.655Z,6002.9
2023-01-30T12:46:17.287Z,5710.1
2023-01-30T12:48:14.261Z,10404.6
2023-01-30T12:50:14.221Z,8955.3
2023-01-30T12:52:13.943Z,4023.9
2023-01-30T12:54:25.291Z,2981
2023-01-30T12:56:14.096Z,2208.3
2023-01-30T12:58:14.005Z,1998.2
2023-01-30T13:02:14.192Z,1480.3
2023-01-30T13:04:14.249Z,1636
2023-01-30T13:06:17.305Z,1719.9
2023-01-30T13:08:20.695Z,1556.2
2023-01-30T13:10:18.243Z,1274.1
2023-01-30T13:12:17.479Z,1212
2023-01-30T13:14:14.222Z,1274.1
2023-01-30T13:16:14.007Z,1152.9
2023-01-30T13:18:14.210Z,1274.1
2023-01-30T13:20:18.061Z,1212
2023-01-30T13:22:14.063Z,1339.4
2023-01-30T13:24:17.652Z,1043.1
2023-01-30T13:26:13.962Z,943.9
2023-01-30T13:28:13.917Z,897.8
2023-01-30T13:30:14.727Z,735.1
2023-01-30T13:32:17.436Z,772.8
2023-01-30T13:34:14.137Z,772.8
2023-01-30T13:36:17.617Z,632.7
2023-01-30T13:38:14.266Z,699.2
2023-01-30T13:40:14.024Z,601.8
2023-01-30T13:42:18.111Z,544.6
2023-01-30T13:44:14.224Z,601.8
2023-01-30T13:46:17.626Z,601.8
2023-01-30T13:48:13.946Z,572.5
2023-01-30T13:50:14.864Z,601.8
2023-01-30T13:52:17.357Z,632.7
2023-01-30T13:54:14.485Z,572.5
2023-01-30T13:56:38.303Z,468.7
2023-01-30T13:58:17.511Z,518
2023-01-30T14:00:13.984Z,518
2023-01-30T14:02:15.335Z,424.1
2023-01-30T14:04:14.496Z,445.9
2023-01-30T14:06:14.674Z,403.4
2023-01-30T14:08:17.091Z,383.8
2023-01-30T14:10:14.128Z,383.8
2023-01-30T14:12:14.000Z,445.9
2023-01-30T14:14:18.392Z,518
2023-01-30T14:18:26.657Z,424.1
2023-01-30T14:20:30.026Z,468.7
2023-01-30T14:22:26.906Z,403.4
2023-01-30T14:24:26.583Z,403.4
2023-01-30T14:26:26.324Z,424.1
2023-01-30T14:28:27.887Z,347.2
2023-01-30T14:30:30.006Z,403.4
2023-01-30T14:32:26.499Z,284.3
2023-01-30T14:34:26.280Z,257.2
2023-01-30T14:36:29.637Z,257.2
2023-01-30T14:38:26.638Z,284.3
2023-01-30T14:40:33.254Z,257.2
2023-01-30T14:42:26.701Z,244.7
2023-01-30T14:44:29.369Z,270.4
2023-01-30T14:46:26.487Z,284.3
2023-01-30T14:48:29.370Z,365
2023-01-30T14:50:26.489Z,365
2023-01-30T14:52:26.496Z,383.8
2023-01-30T14:54:40.185Z,330.3
2023-01-30T14:56:26.672Z,424.1
2023-01-30T14:58:29.611Z,298.9
2023-01-30T15:00:25.963Z,270.4
2023-01-30T15:02:33.174Z,270.4
2023-01-30T15:04:26.389Z,298.9
2023-01-30T15:06:29.950Z,284.3
2023-01-30T15:08:32.930Z,257.2
2023-01-30T15:10:29.502Z,244.7
2023-01-30T15:12:25.997Z,270.4
2023-01-30T15:14:26.297Z,232.8
2023-01-30T15:16:26.516Z,284.3
2023-01-30T15:18:29.025Z,347.2
2023-01-30T15:20:28.145Z,365
2023-01-30T15:22:26.550Z,445.9
2023-01-30T15:24:25.983Z,468.7
2023-01-30T15:26:25.874Z,572.5
2023-01-30T15:28:26.543Z,468.7
2023-01-30T15:30:29.859Z,298.9
2023-01-30T15:32:26.920Z,284.3
2023-01-30T15:34:29.906Z,221.4
2023-01-30T15:36:26.436Z,244.7
2023-01-30T15:38:26.269Z,232.8
2023-01-30T15:42:26.339Z,172.4
2023-01-30T15:44:26.753Z,232.8
2023-01-30T15:46:30.289Z,347.2
2023-01-30T15:48:26.615Z,298.9
2023-01-30T15:50:26.627Z,244.7
2023-01-30T15:52:26.328Z,221.4
2023-01-30T15:54:33.049Z,221.4
2023-01-30T15:56:25.883Z,200.3
2023-01-30T15:58:27.916Z,127.7
2023-01-30T16:00:29.645Z,141.2
2023-01-30T16:02:29.405Z,141.2
2023-01-30T16:04:26.523Z,109.9
2023-01-30T16:06:33.112Z,134.3
2023-01-30T16:08:25.965Z,115.6
2023-01-30T16:10:25.906Z,127.7
2023-01-30T16:12:26.676Z,104.6
2023-01-30T16:14:29.432Z,73.7
2023-01-30T16:16:26.603Z,47
2023-01-30T16:18:26.283Z,34.8
2023-01-30T16:20:25.809Z,30
2023-01-30T16:22:29.067Z,21.1
2023-01-30T16:24:25.823Z,15.6
2023-01-30T16:26:25.825Z,14.9
2023-01-30T16:28:29.877Z,13.5
2023-01-30T16:30:33.137Z,9
2023-01-30T16:32:26.345Z,5.2
2023-01-30T16:34:26.231Z,3.5
2023-01-30T16:36:26.282Z,2.3
2023-01-30T16:38:25.778Z,1.6
2023-01-30T16:40:33.165Z,0.9
2023-01-30T16:42:26.629Z,0.7
2023-01-30T16:44:32.195Z,0.3
2023-01-30T16:46:32.905Z,0.2
2023-01-30T16:48:25.994Z,0.2
2023-01-30T16:50:25.812Z,0.1
2023-01-30T16:52:27.491Z,0
2023-01-30T16:54:26.404Z,0
2023-01-30T16:56:25.899Z,0
2023-01-30T16:58:29.567Z,0
2023-01-30T17:00:26.055Z,0
2023-01-30T17:02:25.963Z,0
2023-01-30T17:04:25.827Z,0
2023-01-30T17:06:26.389Z,0
2023-01-30T17:08:26.303Z,1
2023-01-30T17:10:27.535Z,1
2023-01-30T17:12:25.846Z,1
2023-01-30T17:14:26.610Z,1
2023-01-30T17:16:25.812Z,1
2023-01-30T17:18:31.854Z,1
2023-01-30T17:20:25.871Z,1
2023-01-30T17:22:25.799Z,1
2023-01-30T17:24:26.773Z,1
2023-01-30T17:26:26.749Z,1
2023-01-30T17:30:25.971Z,1
2023-01-30T17:32:26.359Z,1
2023-01-30T17:34:28.571Z,1
2023-01-30T17:36:29.871Z,1
2023-01-30T17:38:29.466Z,1
2023-01-30T17:40:26.082Z,1
2023-01-30T17:42:33.077Z,1
2023-01-30T17:44:26.042Z,1
2023-01-30T17:46:26.250Z,1
2023-01-30T17:48:29.545Z,1
2023-01-30T17:50:25.834Z,1
2023-01-30T17:52:29.487Z,1
2023-01-30T17:54:26.699Z,1
2023-01-30T17:56:29.889Z,1
2023-01-30T17:58:26.341Z,1
2023-01-30T18:00:25.876Z,1
2023-01-30T18:02:29.678Z,1
2023-01-30T18:04:26.190Z,1
2023-01-30T18:06:26.453Z,1
2023-01-30T18:08:34.687Z,1
2023-01-30T18:10:25.801Z,1
2023-01-30T18:12:26.485Z,1
2023-01-30T18:14:29.595Z,1
2023-01-30T18:16:26.716Z,1
2023-01-30T18:18:26.675Z,1
2023-01-30T18:20:26.239Z,1
2023-01-30T18:22:26.471Z,1
2023-01-30T18:24:26.395Z,1
2023-01-30T18:26:25.863Z,1
2023-01-30T18:28:26.747Z,1
2023-01-30T18:30:29.991Z,1
2023-01-30T18:32:26.190Z,1
2023-01-30T18:34:29.848Z,1
2023-01-30T18:36:26.634Z,1
2023-01-30T18:38:25.808Z,1
2023-01-30T18:40:25.721Z,1
2023-01-30T18:44:26.440Z,1
2023-01-30T18:46:25.947Z,1
2023-01-30T18:48:27.010Z,1
2023-01-30T18:50:25.776Z,1
2023-01-30T18:52:29.826Z,1
2023-01-30T18:54:29.626Z,1
2023-01-30T18:56:25.861Z,1
2023-01-30T18:58:26.291Z,1
2023-01-30T19:00:26.526Z,1
2023-01-30T19:02:26.529Z,1
2023-01-30T19:04:26.297Z,1
2023-01-30T19:06:29.095Z,1
2023-01-30T19:08:29.573Z,1
2023-01-30T19:10:25.811Z,1
2023-01-30T19:12:29.024Z,1
2023-01-30T19:14:25.846Z,1
2023-01-30T19:16:26.233Z,1
2023-01-30T19:18:25.835Z,1
2023-01-30T19:20:26.594Z,1
2023-01-30T19:22:29.074Z,1
2023-01-30T19:24:26.314Z,1
2023-01-30T19:26:26.039Z,1
2023-01-30T19:28:30.613Z,1
2023-01-30T19:30:26.584Z,1
2023-01-30T19:32:26.187Z,1
2023-01-30T19:34:27.969Z,1
2023-01-30T19:36:29.383Z,1
2023-01-30T19:38:26.612Z,1
2023-01-30T19:40:26.488Z,1
2023-01-30T19:42:26.575Z,1
2023-01-30T19:44:29.064Z,1
2023-01-30T19:46:25.847Z,1
2023-01-30T19:48:26.413Z,1
2023-01-30T19:50:29.730Z,1
2023-01-30T19:52:29.635Z,1
2023-01-30T19:54:25.826Z,1
2023-01-30T19:56:28.981Z,1
2023-01-30T19:58:32.999Z,1
2023-01-30T20:00:25.895Z,1
2023-01-30T20:02:25.768Z,1
2023-01-30T20:04:30.498Z,1
2023-01-30T20:06:33.134Z,1
2023-01-30T20:08:32.127Z,1
2023-01-30T20:10:26.282Z,1
2023-01-30T20:12:30.122Z,1
2023-01-30T20:14:29.929Z,1
2023-01-30T20:16:25.866Z,1
2023-01-30T20:18:37.089Z,1
2023-01-30T20:20:25.847Z,1
2023-01-30T20:22:29.937Z,1
2023-01-30T20:24:26.694Z,1
2023-01-30T20:26:25.946Z,1
2023-01-30T20:28:28.156Z,1
2023-01-30T20:30:26.751Z,1
2023-01-30T20:32:26.517Z,1
2023-01-30T20:34:31.912Z,1
2023-01-30T20:36:25.839Z,1
2023-01-30T20:38:25.849Z,1
2023-01-30T20:40:26.679Z,1
2023-01-30T20:42:26.645Z,1
2023-01-30T20:44:27.757Z,1
2023-01-30T20:46:25.817Z,1
2023-01-30T20:48:29.965Z,1
2023-01-30T20:50:29.859Z,1
2023-01-30T20:52:26.321Z,1
2023-01-30T20:54:26.246Z,1
2023-01-30T20:56:30.090Z,1
2023-01-30T20:58:25.965Z,1
2023-01-30T21:00:26.927Z,1
2023-01-30T21:02:26.097Z,1
2023-01-30T21:04:33.136Z,1
2023-01-30T21:06:37.462Z,1
2023-01-30T21:08:26.643Z,1
2023-01-30T21:10:26.386Z,1
2023-01-30T21:12:26.480Z,1
2023-01-30T21:14:26.711Z,1
2023-01-30T21:16:26.534Z,1
2023-01-30T21:18:26.557Z,1
2023-01-30T21:20:26.442Z,1
2023-01-30T21:22:25.869Z,1
2023-01-30T21:24:29.982Z,1
2023-01-30T21:26:26.547Z,1
2023-01-30T21:28:29.858Z,1
2023-01-30T21:32:30.092Z,1
2023-01-30T21:34:26.038Z,1
2023-01-30T21:36:26.405Z,1
2023-01-30T21:38:29.641Z,1
2023-01-30T21:40:29.807Z,1
2023-01-30T21:42:33.274Z,1
2023-01-30T21:44:25.823Z,1
2023-01-30T21:46:25.883Z,1
2023-01-30T21:48:26.473Z,1
2023-01-30T21:50:25.903Z,1
2023-01-30T21:52:26.386Z,1
2023-01-30T21:54:26.927Z,1
2023-01-30T21:58:25.759Z,1
2023-01-30T22:00:26.470Z,1
2023-01-30T22:02:25.880Z,1
2023-01-30T22:04:25.851Z,1
2023-01-30T22:06:26.803Z,1
2023-01-30T22:08:37.725Z,1
2023-01-30T22:10:25.847Z,1
2023-01-30T22:12:25.873Z,1
2023-01-30T22:14:26.003Z,1
2023-01-30T22:18:26.006Z,1
2023-01-30T22:20:26.101Z,1
2023-01-30T22:22:26.400Z,1
2023-01-30T22:24:26.307Z,1
2023-01-30T22:26:25.853Z,1
2023-01-30T22:28:29.936Z,1
2023-01-30T22:30:26.644Z,1
2023-01-30T22:32:25.793Z,1
2023-01-30T22:34:26.108Z,1
2023-01-30T22:36:25.862Z,1
2023-01-30T22:38:27.278Z,1
2023-01-30T22:40:25.850Z,1
2023-01-30T22:42:33.055Z,1
2023-01-30T22:46:25.830Z,1
2023-01-30T22:50:25.831Z,1
2023-01-30T22:52:26.395Z,1
2023-01-30T22:54:26.504Z,1
2023-01-30T22:56:29.951Z,1
2023-01-30T22:58:25.992Z,1
2023-01-30T23:00:29.128Z,1
2023-01-30T23:02:25.909Z,1
2023-01-30T23:04:26.451Z,1
2023-01-30T23:06:26.704Z,1
2023-01-30T23:08:33.111Z,1
2023-01-30T23:10:26.306Z,1
2023-01-30T23:12:29.951Z,1
2023-01-30T23:14:26.406Z,1
2023-01-30T23:16:26.526Z,1
2023-01-30T23:18:26.175Z,1
2023-01-30T23:20:32.803Z,1
2023-01-30T23:22:26.425Z,1
2023-01-30T23:24:29.881Z,1
2023-01-30T23:26:29.960Z,1
2023-01-30T23:28:26.227Z,1
2023-01-30T23:30:25.984Z,1
2023-01-30T23:32:25.855Z,1
2023-01-30T23:34:32.587Z,1
2023-01-30T23:36:25.853Z,1
2023-01-30T23:38:29.410Z,1
2023-01-30T23:40:26.298Z,1
2023-01-30T23:42:26.740Z,1
2023-01-30T23:44:35.524Z,1
2023-01-30T23:46:26.302Z,1
2023-01-30T23:48:33.088Z,1
2023-01-30T23:50:26.404Z,1
2023-01-30T23:52:33.136Z,1
2023-01-30T23:54:25.983Z,1
2023-01-30T23:56:26.484Z,1
2023-01-30T23:58:32.821Z,1
